Aérodrome :
LOGIN :

S'inscrire | Disclaimer

   EN    FR    IT 

 










Légende :    VFR   VFR Marginal   IFR   IFR Intensif   IFR Très Intensif
Visi : 
Plafond : 
>= 8 km
>= 3000ft
5 à 8 km
1000 à 3000 ft
1500m à 5 km
500 à 1000 ft
800 à 1500m
200 à 500 ft
< 800m
< 200 ft
Symboles :   Orages  Brouillard  Fortes neiges  Fortes précipitations  Vent > 20 kt
SIGMETs :   Divers  Orages  Givrage  Turbulence  Onde Orograph.  Cendres Volcan.






- Altitude de l'aérodrome : 989 ft
- Code IATA : TRN


LIMF - Torino Caselle

DERNIER METAR :
  • 170250Z 30006KT CAVOK 18/13 Q1015

METARs EXPIRÉS :
  • 170220Z 28003KT 240V300 CAVOK 18/13 Q1014
  • 170150Z 30002KT CAVOK 18/13 Q1014
  • 170120Z VRB01KT CAVOK 18/13 Q1014
  • 170050Z 30004KT CAVOK 19/13 Q1014
  • 170020Z VRB02KT CAVOK 18/14 Q1014
  • 162350Z 31003KT 9999 FEW060 20/14 Q1014
  • 162320Z VRB02KT 9999 FEW060 20/14 Q1014
  • 162250Z 31004KT 280V340 9999 SCT060 20/15 Q1014

TAF TAF LIMF
Valide du 17 à 00h jusqu'au 18 à 00h UTC


162300Z 1700/1724 VRB03KT 9999 SCT050



MET'MAP, la Météo Aéronautique d'un coup d'oeil ! - Copyright ORBIFLY Décembre 2007 - Disclaimer

ORBIFLY MET'MAP TEAM :

Programmation & Développement : Alexandra Zaïnal
Sur une idée originale de : Baudouin d'Aumeries
Soutien technique & logistique : Manuel Goepfert
Assistance : Marc-Olivier Méhu




SOURCES & CREDITS :

   NOAA